sensor_id;sensor_type;location;lat;lon;timestamp;temperature;humidity
17489;DHT22;8861;52.644;4.734;2023-07-31T00:01:48;16.80;99.90
17489;DHT22;8861;52.644;4.734;2023-07-31T00:04:15;16.90;99.90
17489;DHT22;8861;52.644;4.734;2023-07-31T00:06:42;16.90;99.90
17489;DHT22;8861;52.644;4.734;2023-07-31T00:09:10;16.80;99.90
17489;DHT22;8861;52.644;4.734;2023-07-31T00:11:37;16.80;99.90
17489;DHT22;8861;52.644;4.734;2023-07-31T00:14:04;16.70;99.90
17489;DHT22;8861;52.644;4.734;2023-07-31T00:16:31;16.70;99.90
17489;DHT22;8861;52.644;4.734;2023-07-31T00:18:58;16.70;99.90
17489;DHT22;8861;52.644;4.734;2023-07-31T00:21:25;16.70;99.90
17489;DHT22;8861;52.644;4.734;2023-07-31T00:23:52;16.80;99.90
17489;DHT22;8861;52.644;4.734;2023-07-31T00:26:21;16.80;99.90
17489;DHT22;8861;52.644;4.734;2023-07-31T00:28:48;16.70;99.90
17489;DHT22;8861;52.644;4.734;2023-07-31T00:31:15;16.80;99.90
17489;DHT22;8861;52.644;4.734;2023-07-31T00:33:42;16.80;99.90
17489;DHT22;8861;52.644;4.734;2023-07-31T00:36:11;16.80;99.90
17489;DHT22;8861;52.644;4.734;2023-07-31T00:38:38;16.80;99.90
17489;DHT22;8861;52.644;4.734;2023-07-31T00:41:05;16.90;99.90
17489;DHT22;8861;52.644;4.734;2023-07-31T00:43:33;16.80;99.90
17489;DHT22;8861;52.644;4.734;2023-07-31T00:46:00;16.80;99.90
17489;DHT22;8861;52.644;4.734;2023-07-31T00:48:27;16.80;99.90
17489;DHT22;8861;52.644;4.734;2023-07-31T00:50:54;16.80;99.90
17489;DHT22;8861;52.644;4.734;2023-07-31T00:53:21;16.80;99.90
17489;DHT22;8861;52.644;4.734;2023-07-31T00:55:51;16.80;99.90
17489;DHT22;8861;52.644;4.734;2023-07-31T00:58:19;16.80;99.90
17489;DHT22;8861;52.644;4.734;2023-07-31T01:00:47;16.80;99.90
17489;DHT22;8861;52.644;4.734;2023-07-31T01:03:15;16.90;99.90
17489;DHT22;8861;52.644;4.734;2023-07-31T01:05:49;16.90;99.90
17489;DHT22;8861;52.644;4.734;2023-07-31T01:08:24;16.80;99.90
17489;DHT22;8861;52.644;4.734;2023-07-31T01:10:56;16.80;99.90
17489;DHT22;8861;52.644;4.734;2023-07-31T01:13:27;16.80;99.90
17489;DHT22;8861;52.644;4.734;2023-07-31T01:15:56;16.80;99.90
17489;DHT22;8861;52.644;4.734;2023-07-31T01:18:23;16.90;99.90
17489;DHT22;8861;52.644;4.734;2023-07-31T01:20:59;16.90;99.90
17489;DHT22;8861;52.644;4.734;2023-07-31T01:23:53;17.00;99.90
17489;DHT22;8861;52.644;4.734;2023-07-31T01:26:26;17.00;99.90
17489;DHT22;8861;52.644;4.734;2023-07-31T01:28:56;17.00;99.90
17489;DHT22;8861;52.644;4.734;2023-07-31T01:31:25;17.00;99.90
17489;DHT22;8861;52.644;4.734;2023-07-31T01:33:54;17.00;99.90
17489;DHT22;8861;52.644;4.734;2023-07-31T01:36:23;17.00;99.90
17489;DHT22;8861;52.644;4.734;2023-07-31T01:38:50;17.00;99.90
17489;DHT22;8861;52.644;4.734;2023-07-31T01:41:17;17.00;99.90
17489;DHT22;8861;52.644;4.734;2023-07-31T01:43:46;17.00;99.90
17489;DHT22;8861;52.644;4.734;2023-07-31T01:46:13;17.00;99.90
17489;DHT22;8861;52.644;4.734;2023-07-31T01:48:40;17.00;99.90
17489;DHT22;8861;52.644;4.734;2023-07-31T01:51:07;17.00;99.90
17489;DHT22;8861;52.644;4.734;2023-07-31T01:53:34;17.00;99.90
17489;DHT22;8861;52.644;4.734;2023-07-31T01:56:01;17.00;99.90
17489;DHT22;8861;52.644;4.734;2023-07-31T01:58:28;17.10;99.90
17489;DHT22;8861;52.644;4.734;2023-07-31T02:00:56;17.00;99.90
17489;DHT22;8861;52.644;4.734;2023-07-31T02:03:23;17.00;99.90
17489;DHT22;8861;52.644;4.734;2023-07-31T02:05:50;17.00;99.90
17489;DHT22;8861;52.644;4.734;2023-07-31T02:08:18;17.00;99.90
17489;DHT22;8861;52.644;4.734;2023-07-31T02:10:45;17.00;99.90
17489;DHT22;8861;52.644;4.734;2023-07-31T02:13:11;17.00;99.90
17489;DHT22;8861;52.644;4.734;2023-07-31T02:15:38;17.00;99.90
17489;DHT22;8861;52.644;4.734;2023-07-31T02:18:07;17.00;99.90
17489;DHT22;8861;52.644;4.734;2023-07-31T02:20:34;17.00;99.90
17489;DHT22;8861;52.644;4.734;2023-07-31T02:23:02;17.00;99.90
17489;DHT22;8861;52.644;4.734;2023-07-31T02:25:29;17.00;99.90
17489;DHT22;8861;52.644;4.734;2023-07-31T02:27:56;16.90;99.90
17489;DHT22;8861;52.644;4.734;2023-07-31T02:30:23;17.00;99.90
17489;DHT22;8861;52.644;4.734;2023-07-31T02:32:49;16.90;99.90
17489;DHT22;8861;52.644;4.734;2023-07-31T02:35:17;17.00;99.90
17489;DHT22;8861;52.644;4.734;2023-07-31T02:37:44;16.90;99.90
17489;DHT22;8861;52.644;4.734;2023-07-31T02:40:12;16.90;99.90
17489;DHT22;8861;52.644;4.734;2023-07-31T02:42:39;16.90;99.90
17489;DHT22;8861;52.644;4.734;2023-07-31T02:45:07;16.90;99.90
17489;DHT22;8861;52.644;4.734;2023-07-31T02:47:34;16.90;99.90
17489;DHT22;8861;52.644;4.734;2023-07-31T02:50:01;16.90;99.90
17489;DHT22;8861;52.644;4.734;2023-07-31T02:52:30;16.80;99.90
17489;DHT22;8861;52.644;4.734;2023-07-31T02:54:57;16.80;99.90
17489;DHT22;8861;52.644;4.734;2023-07-31T02:57:24;16.80;99.90
17489;DHT22;8861;52.644;4.734;2023-07-31T02:59:51;16.80;99.90
17489;DHT22;8861;52.644;4.734;2023-07-31T03:02:18;16.80;99.90
17489;DHT22;8861;52.644;4.734;2023-07-31T03:04:45;16.80;99.90
17489;DHT22;8861;52.644;4.734;2023-07-31T03:07:12;16.80;99.90
17489;DHT22;8861;52.644;4.734;2023-07-31T03:09:41;16.70;99.90
17489;DHT22;8861;52.644;4.734;2023-07-31T03:12:08;16.70;99.90
17489;DHT22;8861;52.644;4.734;2023-07-31T03:14:35;16.70;99.90
17489;DHT22;8861;52.644;4.734;2023-07-31T03:17:02;16.70;99.90
17489;DHT22;8861;52.644;4.734;2023-07-31T03:19:31;16.70;99.90
17489;DHT22;8861;52.644;4.734;2023-07-31T03:21:58;16.70;99.90
17489;DHT22;8861;52.644;4.734;2023-07-31T03:24:25;16.70;99.90
17489;DHT22;8861;52.644;4.734;2023-07-31T03:26:53;16.70;99.90
17489;DHT22;8861;52.644;4.734;2023-07-31T03:29:20;16.70;99.90
17489;DHT22;8861;52.644;4.734;2023-07-31T03:31:47;16.70;99.90
17489;DHT22;8861;52.644;4.734;2023-07-31T03:34:14;16.70;99.90
17489;DHT22;8861;52.644;4.734;2023-07-31T03:36:42;16.70;99.90
17489;DHT22;8861;52.644;4.734;2023-07-31T03:39:08;16.70;99.90
17489;DHT22;8861;52.644;4.734;2023-07-31T03:41:35;16.70;99.90
17489;DHT22;8861;52.644;4.734;2023-07-31T03:44:04;16.70;99.90
17489;DHT22;8861;52.644;4.734;2023-07-31T03:46:31;16.60;99.90
17489;DHT22;8861;52.644;4.734;2023-07-31T03:48:59;16.60;99.90
17489;DHT22;8861;52.644;4.734;2023-07-31T03:51:26;16.60;99.90
17489;DHT22;8861;52.644;4.734;2023-07-31T03:53:53;16.60;99.90
17489;DHT22;8861;52.644;4.734;2023-07-31T03:56:22;16.60;99.90
17489;DHT22;8861;52.644;4.734;2023-07-31T03:58:49;16.60;99.90
17489;DHT22;8861;52.644;4.734;2023-07-31T04:01:17;16.70;99.90
17489;DHT22;8861;52.644;4.734;2023-07-31T04:03:45;16.60;99.90
17489;DHT22;8861;52.644;4.734;2023-07-31T04:06:12;16.60;99.90
17489;DHT22;8861;52.644;4.734;2023-07-31T04:08:39;16.60;99.90
17489;DHT22;8861;52.644;4.734;2023-07-31T04:11:06;16.60;99.90
17489;DHT22;8861;52.644;4.734;2023-07-31T04:13:33;16.70;99.90
17489;DHT22;8861;52.644;4.734;2023-07-31T04:16:00;16.70;99.90
17489;DHT22;8861;52.644;4.734;2023-07-31T04:18:28;16.70;99.90
17489;DHT22;8861;52.644;4.734;2023-07-31T04:20:56;16.70;99.90
17489;DHT22;8861;52.644;4.734;2023-07-31T04:23:24;16.70;99.90
17489;DHT22;8861;52.644;4.734;2023-07-31T04:25:51;16.70;99.90
17489;DHT22;8861;52.644;4.734;2023-07-31T04:28:18;16.70;99.90
17489;DHT22;8861;52.644;4.734;2023-07-31T04:30:45;16.70;99.90
17489;DHT22;8861;52.644;4.734;2023-07-31T04:33:12;16.80;99.90
17489;DHT22;8861;52.644;4.734;2023-07-31T04:35:41;16.70;99.90
17489;DHT22;8861;52.644;4.734;2023-07-31T04:38:08;16.70;99.90
17489;DHT22;8861;52.644;4.734;2023-07-31T04:40:35;16.70;99.90
17489;DHT22;8861;52.644;4.734;2023-07-31T04:43:02;16.80;99.90
17489;DHT22;8861;52.644;4.734;2023-07-31T04:45:30;16.80;99.90
17489;DHT22;8861;52.644;4.734;2023-07-31T04:47:57;16.80;99.90
17489;DHT22;8861;52.644;4.734;2023-07-31T04:50:24;16.80;99.90
17489;DHT22;8861;52.644;4.734;2023-07-31T04:52:52;16.80;99.90
17489;DHT22;8861;52.644;4.734;2023-07-31T04:55:19;16.80;99.90
17489;DHT22;8861;52.644;4.734;2023-07-31T04:57:46;16.80;99.90
17489;DHT22;8861;52.644;4.734;2023-07-31T05:00:13;16.80;99.90
17489;DHT22;8861;52.644;4.734;2023-07-31T05:02:40;16.80;99.90
17489;DHT22;8861;52.644;4.734;2023-07-31T05:05:08;16.80;99.90
17489;DHT22;8861;52.644;4.734;2023-07-31T05:07:35;16.80;99.90
17489;DHT22;8861;52.644;4.734;2023-07-31T05:10:04;16.80;99.90
17489;DHT22;8861;52.644;4.734;2023-07-31T05:12:31;16.90;99.90
17489;DHT22;8861;52.644;4.734;2023-07-31T05:14:58;16.90;99.90
17489;DHT22;8861;52.644;4.734;2023-07-31T05:17:25;16.80;99.90
17489;DHT22;8861;52.644;4.734;2023-07-31T05:19:52;16.80;99.90
17489;DHT22;8861;52.644;4.734;2023-07-31T05:22:19;16.90;99.90
17489;DHT22;8861;52.644;4.734;2023-07-31T05:24:46;16.90;99.90
17489;DHT22;8861;52.644;4.734;2023-07-31T05:27:15;17.00;99.90
17489;DHT22;8861;52.644;4.734;2023-07-31T05:29:44;17.00;99.90
17489;DHT22;8861;52.644;4.734;2023-07-31T05:32:11;17.00;99.90
17489;DHT22;8861;52.644;4.734;2023-07-31T05:34:38;17.10;99.90
17489;DHT22;8861;52.644;4.734;2023-07-31T05:37:05;17.10;99.90
17489;DHT22;8861;52.644;4.734;2023-07-31T05:39:32;17.10;99.90
17489;DHT22;8861;52.644;4.734;2023-07-31T05:41:59;17.10;99.90
17489;DHT22;8861;52.644;4.734;2023-07-31T05:44:28;17.10;99.90
17489;DHT22;8861;52.644;4.734;2023-07-31T05:46:55;17.10;99.90
17489;DHT22;8861;52.644;4.734;2023-07-31T05:49:22;17.20;99.90
17489;DHT22;8861;52.644;4.734;2023-07-31T05:51:49;17.20;99.90
17489;DHT22;8861;52.644;4.734;2023-07-31T05:54:17;17.20;99.90
17489;DHT22;8861;52.644;4.734;2023-07-31T05:56:44;17.20;99.90
17489;DHT22;8861;52.644;4.734;2023-07-31T05:59:12;17.20;99.90
17489;DHT22;8861;52.644;4.734;2023-07-31T06:01:41;17.30;99.90
17489;DHT22;8861;52.644;4.734;2023-07-31T06:04:08;17.30;99.90
17489;DHT22;8861;52.644;4.734;2023-07-31T06:06:35;17.30;99.90
17489;DHT22;8861;52.644;4.734;2023-07-31T06:09:02;17.30;99.90
17489;DHT22;8861;52.644;4.734;2023-07-31T06:11:30;17.30;99.90
17489;DHT22;8861;52.644;4.734;2023-07-31T06:13:57;17.30;99.90
17489;DHT22;8861;52.644;4.734;2023-07-31T06:16:25;17.40;99.90
17489;DHT22;8861;52.644;4.734;2023-07-31T06:18:54;17.40;99.90
17489;DHT22;8861;52.644;4.734;2023-07-31T06:21:21;17.40;99.90
17489;DHT22;8861;52.644;4.734;2023-07-31T06:23:48;17.40;99.90
17489;DHT22;8861;52.644;4.734;2023-07-31T06:26:15;17.40;99.90
17489;DHT22;8861;52.644;4.734;2023-07-31T06:28:41;17.40;99.90
17489;DHT22;8861;52.644;4.734;2023-07-31T06:31:09;17.50;99.90
17489;DHT22;8861;52.644;4.734;2023-07-31T06:33:36;17.50;99.90
17489;DHT22;8861;52.644;4.734;2023-07-31T06:36:04;17.50;99.90
17489;DHT22;8861;52.644;4.734;2023-07-31T06:38:31;17.50;99.90
17489;DHT22;8861;52.644;4.734;2023-07-31T06:40:58;17.60;99.90
17489;DHT22;8861;52.644;4.734;2023-07-31T06:43:25;17.60;99.90
17489;DHT22;8861;52.644;4.734;2023-07-31T06:45:52;17.60;99.90
17489;DHT22;8861;52.644;4.734;2023-07-31T06:48:19;17.60;99.90
17489;DHT22;8861;52.644;4.734;2023-07-31T06:50:46;17.70;99.90
17489;DHT22;8861;52.644;4.734;2023-07-31T06:53:15;17.60;99.90
17489;DHT22;8861;52.644;4.734;2023-07-31T06:55:42;17.60;99.90
17489;DHT22;8861;52.644;4.734;2023-07-31T06:58:08;17.60;99.90
17489;DHT22;8861;52.644;4.734;2023-07-31T07:00:35;17.70;99.90
17489;DHT22;8861;52.644;4.734;2023-07-31T07:03:03;17.70;99.90
17489;DHT22;8861;52.644;4.734;2023-07-31T07:05:30;17.70;99.90
17489;DHT22;8861;52.644;4.734;2023-07-31T07:07:57;17.80;99.90
17489;DHT22;8861;52.644;4.734;2023-07-31T07:10:25;17.80;99.90
17489;DHT22;8861;52.644;4.734;2023-07-31T07:12:52;17.90;99.90
17489;DHT22;8861;52.644;4.734;2023-07-31T07:15:21;17.90;99.90
17489;DHT22;8861;52.644;4.734;2023-07-31T07:17:48;17.90;99.90
17489;DHT22;8861;52.644;4.734;2023-07-31T07:20:15;17.90;99.90
17489;DHT22;8861;52.644;4.734;2023-07-31T07:22:42;17.90;99.90
17489;DHT22;8861;52.644;4.734;2023-07-31T07:25:09;17.90;99.90
17489;DHT22;8861;52.644;4.734;2023-07-31T07:27:38;17.90;99.90
17489;DHT22;8861;52.644;4.734;2023-07-31T07:30:06;17.90;99.90
17489;DHT22;8861;52.644;4.734;2023-07-31T07:32:33;17.80;99.90
17489;DHT22;8861;52.644;4.734;2023-07-31T07:35:00;17.80;99.90
17489;DHT22;8861;52.644;4.734;2023-07-31T07:37:27;17.80;99.90
17489;DHT22;8861;52.644;4.734;2023-07-31T07:39:54;17.80;99.90
17489;DHT22;8861;52.644;4.734;2023-07-31T07:42:23;17.80;99.90
17489;DHT22;8861;52.644;4.734;2023-07-31T07:44:51;17.80;99.90
17489;DHT22;8861;52.644;4.734;2023-07-31T07:47:18;17.80;99.90
17489;DHT22;8861;52.644;4.734;2023-07-31T07:49:46;17.80;99.90
17489;DHT22;8861;52.644;4.734;2023-07-31T07:52:15;17.80;99.90
17489;DHT22;8861;52.644;4.734;2023-07-31T07:54:42;17.90;99.90
17489;DHT22;8861;52.644;4.734;2023-07-31T07:57:09;18.00;99.90
17489;DHT22;8861;52.644;4.734;2023-07-31T07:59:36;18.00;99.90
17489;DHT22;8861;52.644;4.734;2023-07-31T08:02:05;18.00;99.90
17489;DHT22;8861;52.644;4.734;2023-07-31T08:04:32;18.00;99.90
17489;DHT22;8861;52.644;4.734;2023-07-31T08:06:59;18.00;99.90
17489;DHT22;8861;52.644;4.734;2023-07-31T08:09:26;18.00;99.90
17489;DHT22;8861;52.644;4.734;2023-07-31T08:11:53;18.00;99.90
17489;DHT22;8861;52.644;4.734;2023-07-31T08:14:23;18.00;99.90
17489;DHT22;8861;52.644;4.734;2023-07-31T08:16:50;18.00;99.90
17489;DHT22;8861;52.644;4.734;2023-07-31T08:19:19;18.10;99.90
17489;DHT22;8861;52.644;4.734;2023-07-31T08:21:46;18.10;99.90
17489;DHT22;8861;52.644;4.734;2023-07-31T08:24:13;18.20;99.90
17489;DHT22;8861;52.644;4.734;2023-07-31T08:26:40;18.30;99.90
17489;DHT22;8861;52.644;4.734;2023-07-31T08:29:07;18.30;99.90
17489;DHT22;8861;52.644;4.734;2023-07-31T08:31:34;18.40;99.90
17489;DHT22;8861;52.644;4.734;2023-07-31T08:34:01;18.40;99.90
17489;DHT22;8861;52.644;4.734;2023-07-31T08:36:29;18.30;99.90
17489;DHT22;8861;52.644;4.734;2023-07-31T08:38:56;18.40;99.90
17489;DHT22;8861;52.644;4.734;2023-07-31T08:41:23;18.40;99.90
17489;DHT22;8861;52.644;4.734;2023-07-31T08:43:52;18.50;99.90
17489;DHT22;8861;52.644;4.734;2023-07-31T08:46:20;18.50;99.90
17489;DHT22;8861;52.644;4.734;2023-07-31T08:48:48;18.50;99.90
17489;DHT22;8861;52.644;4.734;2023-07-31T08:51:15;18.50;99.90
17489;DHT22;8861;52.644;4.734;2023-07-31T08:53:43;18.50;99.90
17489;DHT22;8861;52.644;4.734;2023-07-31T08:56:11;18.40;99.90
17489;DHT22;8861;52.644;4.734;2023-07-31T08:58:40;18.40;99.90
17489;DHT22;8861;52.644;4.734;2023-07-31T09:01:09;18.40;99.90
17489;DHT22;8861;52.644;4.734;2023-07-31T09:03:36;18.40;99.90
17489;DHT22;8861;52.644;4.734;2023-07-31T09:06:04;18.50;99.90
17489;DHT22;8861;52.644;4.734;2023-07-31T09:08:32;18.50;99.90
17489;DHT22;8861;52.644;4.734;2023-07-31T09:11:01;18.50;99.90
17489;DHT22;8861;52.644;4.734;2023-07-31T09:13:30;18.50;99.90
17489;DHT22;8861;52.644;4.734;2023-07-31T09:15:58;18.50;99.90
17489;DHT22;8861;52.644;4.734;2023-07-31T09:18:25;18.50;99.90
17489;DHT22;8861;52.644;4.734;2023-07-31T09:21:02;18.50;99.90
17489;DHT22;8861;52.644;4.734;2023-07-31T09:23:40;18.60;99.90
17489;DHT22;8861;52.644;4.734;2023-07-31T09:26:09;18.60;99.90
17489;DHT22;8861;52.644;4.734;2023-07-31T09:28:36;18.70;99.90
17489;DHT22;8861;52.644;4.734;2023-07-31T09:31:04;18.70;99.90
17489;DHT22;8861;52.644;4.734;2023-07-31T09:33:31;18.80;99.90
17489;DHT22;8861;52.644;4.734;2023-07-31T09:35:59;18.90;99.90
17489;DHT22;8861;52.644;4.734;2023-07-31T09:38:27;19.00;99.90
17489;DHT22;8861;52.644;4.734;2023-07-31T09:40:54;19.00;99.90
17489;DHT22;8861;52.644;4.734;2023-07-31T09:43:23;19.00;99.90
17489;DHT22;8861;52.644;4.734;2023-07-31T09:45:55;19.00;99.90
17489;DHT22;8861;52.644;4.734;2023-07-31T09:48:23;19.00;99.90
17489;DHT22;8861;52.644;4.734;2023-07-31T09:50:53;19.10;99.90
17489;DHT22;8861;52.644;4.734;2023-07-31T09:53:28;19.20;99.90
17489;DHT22;8861;52.644;4.734;2023-07-31T09:55:58;18.90;99.90
17489;DHT22;8861;52.644;4.734;2023-07-31T09:58:29;18.70;99.90
17489;DHT22;8861;52.644;4.734;2023-07-31T10:00:57;18.60;99.90
17489;DHT22;8861;52.644;4.734;2023-07-31T10:03:25;18.50;99.90
17489;DHT22;8861;52.644;4.734;2023-07-31T10:05:53;18.50;99.90
17489;DHT22;8861;52.644;4.734;2023-07-31T10:08:26;18.50;99.90
17489;DHT22;8861;52.644;4.734;2023-07-31T10:10:58;18.50;99.90
17489;DHT22;8861;52.644;4.734;2023-07-31T10:13:28;18.50;99.90
17489;DHT22;8861;52.644;4.734;2023-07-31T10:15:59;18.50;99.90
17489;DHT22;8861;52.644;4.734;2023-07-31T10:18:26;18.50;99.90
17489;DHT22;8861;52.644;4.734;2023-07-31T10:20:54;18.70;99.90
17489;DHT22;8861;52.644;4.734;2023-07-31T10:23:22;18.80;99.90
17489;DHT22;8861;52.644;4.734;2023-07-31T10:25:53;19.00;99.90
17489;DHT22;8861;52.644;4.734;2023-07-31T10:28:21;19.00;99.90
17489;DHT22;8861;52.644;4.734;2023-07-31T10:30:49;19.00;99.90
17489;DHT22;8861;52.644;4.734;2023-07-31T10:33:17;19.00;99.90
17489;DHT22;8861;52.644;4.734;2023-07-31T10:35:47;18.90;99.90
17489;DHT22;8861;52.644;4.734;2023-07-31T10:38:14;19.10;99.90
17489;DHT22;8861;52.644;4.734;2023-07-31T10:40:42;19.20;99.90
17489;DHT22;8861;52.644;4.734;2023-07-31T10:43:23;19.30;99.90
17489;DHT22;8861;52.644;4.734;2023-07-31T10:45:53;19.20;99.90
17489;DHT22;8861;52.644;4.734;2023-07-31T10:48:21;19.20;99.90
17489;DHT22;8861;52.644;4.734;2023-07-31T10:50:49;19.30;99.90
17489;DHT22;8861;52.644;4.734;2023-07-31T10:53:23;19.40;99.90
17489;DHT22;8861;52.644;4.734;2023-07-31T10:55:50;19.70;99.90
17489;DHT22;8861;52.644;4.734;2023-07-31T10:58:19;19.80;99.90
17489;DHT22;8861;52.644;4.734;2023-07-31T11:00:47;19.90;99.90
17489;DHT22;8861;52.644;4.734;2023-07-31T11:03:16;20.10;99.90
17489;DHT22;8861;52.644;4.734;2023-07-31T11:05:49;20.10;99.90
17489;DHT22;8861;52.644;4.734;2023-07-31T11:08:21;20.20;99.90
17489;DHT22;8861;52.644;4.734;2023-07-31T11:10:50;20.10;99.90
17489;DHT22;8861;52.644;4.734;2023-07-31T11:13:18;20.10;99.90
17489;DHT22;8861;52.644;4.734;2023-07-31T11:15:45;20.10;99.90
17489;DHT22;8861;52.644;4.734;2023-07-31T11:18:12;20.00;99.90
17489;DHT22;8861;52.644;4.734;2023-07-31T11:20:40;20.10;99.90
17489;DHT22;8861;52.644;4.734;2023-07-31T11:23:09;20.10;99.90
17489;DHT22;8861;52.644;4.734;2023-07-31T11:25:37;20.20;99.90
17489;DHT22;8861;52.644;4.734;2023-07-31T11:28:06;20.50;99.90
17489;DHT22;8861;52.644;4.734;2023-07-31T11:30:33;20.80;99.90
17489;DHT22;8861;52.644;4.734;2023-07-31T11:33:02;21.10;99.90
17489;DHT22;8861;52.644;4.734;2023-07-31T11:35:31;21.30;99.90
17489;DHT22;8861;52.644;4.734;2023-07-31T11:38:00;21.40;99.90
17489;DHT22;8861;52.644;4.734;2023-07-31T11:40:27;21.40;99.90
17489;DHT22;8861;52.644;4.734;2023-07-31T11:42:56;21.50;99.90
17489;DHT22;8861;52.644;4.734;2023-07-31T11:45:25;21.40;99.90
17489;DHT22;8861;52.644;4.734;2023-07-31T11:47:54;21.60;99.90
17489;DHT22;8861;52.644;4.734;2023-07-31T11:50:22;21.60;99.90
17489;DHT22;8861;52.644;4.734;2023-07-31T11:52:53;21.60;99.90
17489;DHT22;8861;52.644;4.734;2023-07-31T11:55:23;21.60;99.90
17489;DHT22;8861;52.644;4.734;2023-07-31T11:57:51;21.40;99.90
17489;DHT22;8861;52.644;4.734;2023-07-31T12:00:18;21.10;99.90
17489;DHT22;8861;52.644;4.734;2023-07-31T12:02:46;20.80;99.90
17489;DHT22;8861;52.644;4.734;2023-07-31T12:05:13;20.70;99.90
17489;DHT22;8861;52.644;4.734;2023-07-31T12:07:47;20.70;99.90
17489;DHT22;8861;52.644;4.734;2023-07-31T12:10:27;20.70;99.90
17489;DHT22;8861;52.644;4.734;2023-07-31T12:13:02;20.80;99.90
17489;DHT22;8861;52.644;4.734;2023-07-31T12:15:40;20.90;99.90
17489;DHT22;8861;52.644;4.734;2023-07-31T12:18:09;21.00;99.90
17489;DHT22;8861;52.644;4.734;2023-07-31T12:20:41;21.10;99.90
17489;DHT22;8861;52.644;4.734;2023-07-31T12:23:19;21.10;99.90
17489;DHT22;8861;52.644;4.734;2023-07-31T12:26:01;21.30;99.90
17489;DHT22;8861;52.644;4.734;2023-07-31T12:28:28;21.40;99.90
17489;DHT22;8861;52.644;4.734;2023-07-31T12:30:57;21.40;99.90
17489;DHT22;8861;52.644;4.734;2023-07-31T12:33:30;21.40;99.90
17489;DHT22;8861;52.644;4.734;2023-07-31T12:35:59;21.60;99.90
17489;DHT22;8861;52.644;4.734;2023-07-31T12:38:27;21.70;99.90
17489;DHT22;8861;52.644;4.734;2023-07-31T12:40:54;21.70;99.90
17489;DHT22;8861;52.644;4.734;2023-07-31T12:43:22;21.80;99.90
17489;DHT22;8861;52.644;4.734;2023-07-31T12:45:49;21.90;99.90
17489;DHT22;8861;52.644;4.734;2023-07-31T12:48:16;21.90;99.90
17489;DHT22;8861;52.644;4.734;2023-07-31T12:50:45;21.80;99.90
17489;DHT22;8861;52.644;4.734;2023-07-31T12:53:13;21.60;99.90
17489;DHT22;8861;52.644;4.734;2023-07-31T12:55:40;21.40;99.90
17489;DHT22;8861;52.644;4.734;2023-07-31T12:58:07;21.10;99.90
17489;DHT22;8861;52.644;4.734;2023-07-31T13:00:35;20.90;99.90
17489;DHT22;8861;52.644;4.734;2023-07-31T13:03:03;20.70;99.90
17489;DHT22;8861;52.644;4.734;2023-07-31T13:05:30;20.60;99.90
17489;DHT22;8861;52.644;4.734;2023-07-31T13:07:57;20.50;99.90
17489;DHT22;8861;52.644;4.734;2023-07-31T13:10:24;20.40;99.90
17489;DHT22;8861;52.644;4.734;2023-07-31T13:12:52;20.30;99.90
17489;DHT22;8861;52.644;4.734;2023-07-31T13:15:19;20.20;99.90
17489;DHT22;8861;52.644;4.734;2023-07-31T13:17:47;20.10;99.90
17489;DHT22;8861;52.644;4.734;2023-07-31T13:20:14;19.90;99.90
17489;DHT22;8861;52.644;4.734;2023-07-31T13:22:41;19.80;99.90
17489;DHT22;8861;52.644;4.734;2023-07-31T13:25:08;19.80;99.90
17489;DHT22;8861;52.644;4.734;2023-07-31T13:27:36;19.70;99.90
17489;DHT22;8861;52.644;4.734;2023-07-31T13:30:04;19.90;99.90
17489;DHT22;8861;52.644;4.734;2023-07-31T13:32:31;20.00;99.90
17489;DHT22;8861;52.644;4.734;2023-07-31T13:34:59;20.20;99.90
17489;DHT22;8861;52.644;4.734;2023-07-31T13:37:26;20.30;99.90
17489;DHT22;8861;52.644;4.734;2023-07-31T13:39:53;20.40;99.90
17489;DHT22;8861;52.644;4.734;2023-07-31T13:42:21;20.40;99.90
17489;DHT22;8861;52.644;4.734;2023-07-31T13:44:48;20.50;99.90
17489;DHT22;8861;52.644;4.734;2023-07-31T13:47:15;20.50;99.90
17489;DHT22;8861;52.644;4.734;2023-07-31T13:49:42;20.50;99.90
17489;DHT22;8861;52.644;4.734;2023-07-31T13:52:12;20.40;99.90
17489;DHT22;8861;52.644;4.734;2023-07-31T13:54:40;20.40;99.90
17489;DHT22;8861;52.644;4.734;2023-07-31T13:57:08;20.40;99.90
17489;DHT22;8861;52.644;4.734;2023-07-31T13:59:35;20.40;99.90
17489;DHT22;8861;52.644;4.734;2023-07-31T14:02:03;20.30;99.90
17489;DHT22;8861;52.644;4.734;2023-07-31T14:04:30;20.40;99.90
17489;DHT22;8861;52.644;4.734;2023-07-31T14:06:57;20.40;99.90
17489;DHT22;8861;52.644;4.734;2023-07-31T14:09:25;20.50;99.90
17489;DHT22;8861;52.644;4.734;2023-07-31T14:11:53;20.50;99.90
17489;DHT22;8861;52.644;4.734;2023-07-31T14:14:20;20.50;99.90
17489;DHT22;8861;52.644;4.734;2023-07-31T14:16:47;20.50;99.90
17489;DHT22;8861;52.644;4.734;2023-07-31T14:19:14;20.50;99.90
17489;DHT22;8861;52.644;4.734;2023-07-31T14:21:41;20.50;99.90
17489;DHT22;8861;52.644;4.734;2023-07-31T14:24:08;20.40;99.90
17489;DHT22;8861;52.644;4.734;2023-07-31T14:26:37;20.40;99.90
17489;DHT22;8861;52.644;4.734;2023-07-31T14:29:04;20.40;99.90
17489;DHT22;8861;52.644;4.734;2023-07-31T14:31:31;20.30;99.90
17489;DHT22;8861;52.644;4.734;2023-07-31T14:33:58;20.30;99.90
17489;DHT22;8861;52.644;4.734;2023-07-31T14:36:25;20.30;99.90
17489;DHT22;8861;52.644;4.734;2023-07-31T14:38:52;20.30;99.90
17489;DHT22;8861;52.644;4.734;2023-07-31T14:41:19;20.30;99.90
17489;DHT22;8861;52.644;4.734;2023-07-31T14:43:47;20.30;99.90
17489;DHT22;8861;52.644;4.734;2023-07-31T14:46:14;20.40;99.90
17489;DHT22;8861;52.644;4.734;2023-07-31T14:48:41;20.40;99.90
17489;DHT22;8861;52.644;4.734;2023-07-31T14:51:08;20.50;99.90
17489;DHT22;8861;52.644;4.734;2023-07-31T14:53:36;20.60;99.90
17489;DHT22;8861;52.644;4.734;2023-07-31T14:56:03;20.60;99.90
17489;DHT22;8861;52.644;4.734;2023-07-31T14:58:30;20.60;99.90
17489;DHT22;8861;52.644;4.734;2023-07-31T15:00:58;20.60;99.90
17489;DHT22;8861;52.644;4.734;2023-07-31T15:03:25;20.60;99.90
17489;DHT22;8861;52.644;4.734;2023-07-31T15:05:52;20.60;99.90
17489;DHT22;8861;52.644;4.734;2023-07-31T15:08:19;20.60;99.90
17489;DHT22;8861;52.644;4.734;2023-07-31T15:10:46;20.40;99.90
17489;DHT22;8861;52.644;4.734;2023-07-31T15:13:13;20.30;99.90
17489;DHT22;8861;52.644;4.734;2023-07-31T15:15:40;20.20;99.90
17489;DHT22;8861;52.644;4.734;2023-07-31T15:18:09;20.20;99.90
17489;DHT22;8861;52.644;4.734;2023-07-31T15:20:36;20.20;99.90
17489;DHT22;8861;52.644;4.734;2023-07-31T15:23:03;20.20;99.90
17489;DHT22;8861;52.644;4.734;2023-07-31T15:25:30;20.20;99.90
17489;DHT22;8861;52.644;4.734;2023-07-31T15:27:57;20.20;99.90
17489;DHT22;8861;52.644;4.734;2023-07-31T15:30:24;20.20;99.90
17489;DHT22;8861;52.644;4.734;2023-07-31T15:32:52;20.10;99.90
17489;DHT22;8861;52.644;4.734;2023-07-31T15:35:20;20.10;99.90
17489;DHT22;8861;52.644;4.734;2023-07-31T15:37:47;20.00;99.90
17489;DHT22;8861;52.644;4.734;2023-07-31T15:40:14;19.90;99.90
17489;DHT22;8861;52.644;4.734;2023-07-31T15:42:41;19.80;99.90
17489;DHT22;8861;52.644;4.734;2023-07-31T15:45:09;19.80;99.90
17489;DHT22;8861;52.644;4.734;2023-07-31T15:47:36;19.70;99.90
17489;DHT22;8861;52.644;4.734;2023-07-31T15:50:05;19.80;99.90